Time,TemperatureF,DewpointF,PressureIn,WindDirection,WindDirectionDegrees,WindSpeedMPH,WindSpeedGustMPH,Humidity,HourlyPrecipIn,Conditions,Clouds,dailyrainin,SoftwareType,DateUTC
2013-07-25 00:02:00,62.3,57.0,29.51,NNW,342,0.0,1.0,82,0.00,,,0.17,weatherlink.com 1.10,2013-07-25 07:02:00,
2013-07-25 00:17:00,62.3,56.0,29.51,NNW,328,0.0,1.0,81,0.00,,,0.17,weatherlink.com 1.10,2013-07-25 07:17:00,
2013-07-25 00:32:00,62.3,56.0,29.51,NW,310,0.0,1.0,81,0.00,,,0.17,weatherlink.com 1.10,2013-07-25 07:32:00,
2013-07-25 00:47:00,62.2,57.0,29.51,NW,305,2.0,2.0,82,0.00,,,0.17,weatherlink.com 1.10,2013-07-25 07:47:00,
2013-07-25 01:02:00,61.5,57.0,29.51,NW,305,1.0,2.0,84,0.00,,,0.17,weatherlink.com 1.10,2013-07-25 08:02:00,
2013-07-25 01:17:00,60.9,57.0,29.51,WNW,284,1.0,3.0,87,0.00,,,0.17,weatherlink.com 1.10,2013-07-25 08:17:00,
2013-07-25 01:33:00,60.5,57.0,29.50,WNW,285,0.0,2.0,88,0.00,,,0.17,weatherlink.com 1.10,2013-07-25 08:33:00,
2013-07-25 01:48:00,60.2,57.0,29.50,NNW,335,0.0,1.0,88,0.00,,,0.17,weatherlink.com 1.10,2013-07-25 08:48:00,
2013-07-25 02:03:00,60.0,57.0,29.50,NNW,335,0.0,0.0,89,0.00,,,0.17,weatherlink.com 1.10,2013-07-25 09:03:00,
2013-07-25 02:18:00,59.4,57.0,29.50,NNW,335,0.0,0.0,90,0.00,,,0.17,weatherlink.com 1.10,2013-07-25 09:18:00,
2013-07-25 02:33:00,59.5,57.0,29.50,ENE,63,1.0,2.0,90,0.00,,,0.17,weatherlink.com 1.10,2013-07-25 09:33:00,
2013-07-25 02:48:00,59.3,57.0,29.51,NE,53,1.0,2.0,91,0.00,,,0.17,weatherlink.com 1.10,2013-07-25 09:48:00,
2013-07-25 03:03:00,59.2,57.0,29.51,NE,56,0.0,1.0,92,0.00,,,0.17,weatherlink.com 1.10,2013-07-25 10:03:00,
2013-07-25 03:18:00,59.2,57.0,29.51,ESE,113,0.0,1.0,92,0.00,,,0.17,weatherlink.com 1.10,2013-07-25 10:18:00,
2013-07-25 03:33:00,59.7,57.0,29.51,ESE,113,0.0,1.0,91,0.00,,,0.17,weatherlink.com 1.10,2013-07-25 10:33:00,
2013-07-25 03:48:00,60.4,57.0,29.52,ENE,68,0.0,1.0,89,0.00,,,0.17,weatherlink.com 1.10,2013-07-25 10:48:00,
2013-07-25 04:03:00,60.3,57.0,29.52,ENE,68,0.0,1.0,89,0.00,,,0.17,weatherlink.com 1.10,2013-07-25 11:03:00,
2013-07-25 04:18:00,59.5,57.0,29.52,ENE,68,0.0,1.0,91,0.00,,,0.17,weatherlink.com 1.10,2013-07-25 11:18:00,
2013-07-25 04:33:00,59.3,57.0,29.52,ENE,68,0.0,0.0,91,0.00,,,0.17,weatherlink.com 1.10,2013-07-25 11:33:00,
2013-07-25 04:48:00,59.9,57.0,29.53,ENE,68,0.0,0.0,90,0.00,,,0.17,weatherlink.com 1.10,2013-07-25 11:48:00,
2013-07-25 05:03:00,60.1,57.0,29.53,ENE,68,0.0,2.0,90,0.00,,,0.17,weatherlink.com 1.10,2013-07-25 12:03:00,
2013-07-25 05:18:00,59.1,57.0,29.53,ENE,60,1.0,2.0,93,0.00,,,0.17,weatherlink.com 1.10,2013-07-25 12:18:00,
2013-07-25 05:33:00,58.8,57.0,29.53,ENE,70,2.0,3.0,94,0.00,,,0.17,weatherlink.com 1.10,2013-07-25 12:33:00,
2013-07-25 05:48:00,58.6,57.0,29.53,ENE,64,1.0,2.0,94,0.00,,,0.17,weatherlink.com 1.10,2013-07-25 12:48:00,
2013-07-25 06:03:00,58.5,57.0,29.53,SE,131,1.0,2.0,95,0.00,,,0.17,weatherlink.com 1.10,2013-07-25 13:03:00,
2013-07-25 06:18:00,58.6,57.0,29.54,SE,131,0.0,0.0,94,0.00,,,0.17,weatherlink.com 1.10,2013-07-25 13:18:00,
2013-07-25 06:33:00,59.3,57.0,29.54,East,83,1.0,2.0,93,0.00,,,0.17,weatherlink.com 1.10,2013-07-25 13:33:00,
2013-07-25 06:48:00,59.9,58.0,29.54,East,82,2.0,2.0,92,0.00,,,0.17,weatherlink.com 1.10,2013-07-25 13:48:00,
2013-07-25 07:03:00,61.0,58.0,29.55,ENE,77,2.0,4.0,91,0.00,,,0.17,weatherlink.com 1.10,2013-07-25 14:03:00,
2013-07-25 07:18:00,62.2,59.0,29.55,ENE,65,2.0,3.0,88,0.00,,,0.17,weatherlink.com 1.10,2013-07-25 14:18:00,
2013-07-25 07:33:00,63.1,60.0,29.56,NNE,12,1.0,6.0,88,0.00,,,0.17,weatherlink.com 1.10,2013-07-25 14:33:00,
2013-07-25 07:48:00,63.6,59.0,29.56,NE,56,4.0,5.0,86,0.00,,,0.17,weatherlink.com 1.10,2013-07-25 14:48:00,
2013-07-25 08:03:00,62.8,59.0,29.56,NE,49,3.0,5.0,88,0.00,,,0.17,weatherlink.com 1.10,2013-07-25 15:03:00,
2013-07-25 08:18:00,62.8,60.0,29.56,NE,56,3.0,4.0,89,0.00,,,0.17,weatherlink.com 1.10,2013-07-25 15:18:00,
2013-07-25 08:33:00,62.1,59.0,29.56,NE,56,2.0,4.0,90,0.00,,,0.17,weatherlink.com 1.10,2013-07-25 15:33:00,
2013-07-25 08:48:00,64.4,61.0,29.56,NNE,20,3.0,5.0,88,0.00,,,0.17,weatherlink.com 1.10,2013-07-25 15:48:00,
2013-07-25 09:03:00,64.6,61.0,29.56,ENE,74,4.0,6.0,88,0.00,,,0.17,weatherlink.com 1.10,2013-07-25 16:03:00,
2013-07-25 09:18:00,63.3,60.0,29.56,ENE,58,4.0,7.0,90,0.00,,,0.17,weatherlink.com 1.10,2013-07-25 16:18:00,
2013-07-25 09:33:00,62.9,60.0,29.57,ENE,65,3.0,6.0,91,0.00,,,0.17,weatherlink.com 1.10,2013-07-25 16:33:00,
2013-07-25 09:48:00,64.5,61.0,29.57,NE,35,4.0,7.0,87,0.00,,,0.17,weatherlink.com 1.10,2013-07-25 16:48:00,
2013-07-25 10:03:00,65.4,61.0,29.57,East,95,0.0,5.0,85,0.00,,,0.17,weatherlink.com 1.10,2013-07-25 17:03:00,
2013-07-25 10:18:00,65.2,60.0,29.57,ENE,77,4.0,7.0,83,0.00,,,0.17,weatherlink.com 1.10,2013-07-25 17:18:00,
2013-07-25 10:33:00,66.2,60.0,29.57,North,355,1.0,7.0,80,0.00,,,0.17,weatherlink.com 1.10,2013-07-25 17:33:00,
2013-07-25 10:48:00,65.0,59.0,29.58,ENE,64,1.0,6.0,80,0.00,,,0.17,weatherlink.com 1.10,2013-07-25 17:48:00,
2013-07-25 11:03:00,64.4,59.0,29.58,North,360,2.0,4.0,83,0.00,,,0.17,weatherlink.com 1.10,2013-07-25 18:03:00,
2013-07-25 11:18:00,63.6,59.0,29.58,NE,53,1.0,5.0,86,0.00,,,0.17,weatherlink.com 1.10,2013-07-25 18:18:00,
2013-07-25 11:33:00,63.8,60.0,29.58,NE,41,1.0,4.0,88,0.00,,,0.17,weatherlink.com 1.10,2013-07-25 18:33:00,
2013-07-25 11:48:00,63.9,60.0,29.58,NE,39,0.0,4.0,88,0.00,,,0.17,weatherlink.com 1.10,2013-07-25 18:48:00,
2013-07-25 12:03:00,64.3,61.0,29.57,NNE,12,2.0,4.0,88,0.00,,,0.17,weatherlink.com 1.10,2013-07-25 19:03:00,
2013-07-25 12:18:00,64.4,61.0,29.57,NE,36,1.0,4.0,88,0.00,,,0.17,weatherlink.com 1.10,2013-07-25 19:18:00,
2013-07-25 12:33:00,64.1,61.0,29.57,ENE,58,3.0,5.0,88,0.00,,,0.17,weatherlink.com 1.10,2013-07-25 19:33:00,
2013-07-25 12:48:00,62.1,56.0,29.57,SW,218,6.0,12.0,81,0.00,,,0.17,weatherlink.com 1.10,2013-07-25 19:48:00,
2013-07-25 13:03:00,60.5,54.0,29.58,SSE,151,4.0,11.0,80,0.00,,,0.17,weatherlink.com 1.10,2013-07-25 20:03:00,
2013-07-25 13:18:00,60.8,56.0,29.57,SSE,148,5.0,9.0,84,0.00,,,0.17,weatherlink.com 1.10,2013-07-25 20:18:00,
2013-07-25 13:33:00,61.9,57.0,29.56,East,88,1.0,8.0,84,0.00,,,0.17,weatherlink.com 1.10,2013-07-25 20:33:00,
2013-07-25 13:48:00,63.3,58.0,29.55,NE,56,2.0,5.0,84,0.00,,,0.17,weatherlink.com 1.10,2013-07-25 20:48:00,
2013-07-25 14:03:00,64.6,59.0,29.57,NE,47,1.0,7.0,82,0.00,,,0.00,weatherlink.com 1.10,2013-07-25 21:03:00,
2013-07-25 14:18:00,65.0,60.0,29.57,SE,125,0.0,3.0,83,0.00,,,0.00,weatherlink.com 1.10,2013-07-25 21:18:00,
2013-07-25 14:33:00,64.6,60.0,29.58,East,94,0.0,4.0,84,0.00,,,0.00,weatherlink.com 1.10,2013-07-25 21:33:00,
2013-07-25 14:48:00,63.9,60.0,29.57,SE,136,0.0,3.0,87,0.00,,,0.00,weatherlink.com 1.10,2013-07-25 21:48:00,
2013-07-25 15:03:00,63.3,59.0,29.55,ENE,74,1.0,3.0,86,0.00,,,0.00,weatherlink.com 1.10,2013-07-25 22:03:00,
2013-07-25 15:19:00,63.5,60.0,29.55,ESE,120,1.0,3.0,87,0.00,,,0.00,weatherlink.com 1.10,2013-07-25 22:19:00,
2013-07-25 15:34:00,63.9,57.0,29.56,South,188,1.0,7.0,78,0.00,,,0.00,weatherlink.com 1.10,2013-07-25 22:34:00,
2013-07-25 15:49:00,64.2,57.0,29.57,West,260,4.0,4.0,78,0.00,,,0.00,weatherlink.com 1.10,2013-07-25 22:49:00,
2013-07-25 16:04:00,63.5,60.0,29.57,SW,232,0.0,3.0,87,0.00,,,0.00,weatherlink.com 1.10,2013-07-25 23:04:00,
2013-07-25 16:19:00,62.6,58.0,29.56,ENE,70,2.0,3.0,84,0.01,,,0.01,weatherlink.com 1.10,2013-07-25 23:19:00,
2013-07-25 16:34:00,62.3,58.0,29.56,NW,324,0.0,3.0,87,0.01,,,0.01,weatherlink.com 1.10,2013-07-25 23:34:00,
2013-07-25 16:49:00,62.0,58.0,29.55,ENE,71,1.0,1.0,87,0.01,,,0.01,weatherlink.com 1.10,2013-07-25 23:49:00,
2013-07-25 17:04:00,62.2,57.0,29.55,SSE,162,0.0,4.0,83,0.01,,,0.01,weatherlink.com 1.10,2013-07-26 00:04:00,
2013-07-25 17:19:00,62.6,57.0,29.56,SSW,203,0.0,2.0,83,0.00,,,0.01,weatherlink.com 1.10,2013-07-26 00:19:00,
2013-07-25 17:34:00,62.6,58.0,29.56,SSW,203,0.0,1.0,86,0.00,,,0.01,weatherlink.com 1.10,2013-07-26 00:34:00,
2013-07-25 17:49:00,62.5,59.0,29.57,South,184,0.0,0.0,87,0.00,,,0.01,weatherlink.com 1.10,2013-07-26 00:49:00,
2013-07-25 18:04:00,62.8,61.0,29.57,South,183,0.0,0.0,92,0.00,,,0.01,weatherlink.com 1.10,2013-07-26 01:04:00,
2013-07-25 18:19:00,62.4,58.0,29.57,SE,131,1.0,1.0,86,0.00,,,0.01,weatherlink.com 1.10,2013-07-26 01:19:00,
2013-07-25 18:34:00,62.4,58.0,29.57,SSE,161,0.0,3.0,84,0.00,,,0.01,weatherlink.com 1.10,2013-07-26 01:34:00,
2013-07-25 18:49:00,62.5,57.0,29.58,South,187,5.0,8.0,81,0.00,,,0.01,weatherlink.com 1.10,2013-07-26 01:49:00,
2013-07-25 19:04:00,62.8,56.0,29.59,South,174,4.0,6.0,77,0.00,,,0.01,weatherlink.com 1.10,2013-07-26 02:04:00,
2013-07-25 19:19:00,62.7,56.0,29.59,SSE,166,2.0,6.0,78,0.00,,,0.01,weatherlink.com 1.10,2013-07-26 02:19:00,
2013-07-25 19:34:00,62.7,55.0,29.60,SSE,158,2.0,6.0,75,0.00,,,0.01,weatherlink.com 1.10,2013-07-26 02:34:00,
2013-07-25 19:49:00,62.8,55.0,29.60,SSE,167,2.0,4.0,76,0.00,,,0.01,weatherlink.com 1.10,2013-07-26 02:49:00,
2013-07-25 20:04:00,63.3,55.0,29.60,SE,145,3.0,5.0,74,0.00,,,0.01,weatherlink.com 1.10,2013-07-26 03:04:00,
2013-07-25 20:19:00,63.9,55.0,29.61,SE,143,3.0,3.0,72,0.00,,,0.01,weatherlink.com 1.10,2013-07-26 03:19:00,
2013-07-25 20:34:00,63.9,54.0,29.61,SSE,156,1.0,3.0,71,0.00,,,0.01,weatherlink.com 1.10,2013-07-26 03:34:00,
2013-07-25 20:49:00,63.3,55.0,29.62,ESE,113,0.0,3.0,74,0.00,,,0.01,weatherlink.com 1.10,2013-07-26 03:49:00,
2013-07-25 21:04:00,63.6,55.0,29.62,SE,145,2.0,3.0,73,0.00,,,0.01,weatherlink.com 1.10,2013-07-26 04:04:00,
2013-07-25 21:19:00,64.0,55.0,29.63,SSW,200,2.0,3.0,72,0.00,,,0.01,weatherlink.com 1.10,2013-07-26 04:19:00,
2013-07-25 21:34:00,63.4,55.0,29.62,SSE,167,5.0,6.0,73,0.00,,,0.01,weatherlink.com 1.10,2013-07-26 04:34:00,
2013-07-25 21:49:00,63.4,55.0,29.63,South,174,2.0,4.0,73,0.00,,,0.01,weatherlink.com 1.10,2013-07-26 04:49:00,
2013-07-25 22:04:00,63.0,55.0,29.64,SW,226,1.0,4.0,75,0.00,,,0.01,weatherlink.com 1.10,2013-07-26 05:04:00,
2013-07-25 22:19:00,63.0,55.0,29.63,WSW,239,0.0,2.0,76,0.00,,,0.01,weatherlink.com 1.10,2013-07-26 05:19:00,
2013-07-25 22:34:00,62.6,55.0,29.63,WSW,240,0.0,0.0,76,0.00,,,0.01,weatherlink.com 1.10,2013-07-26 05:34:00,
2013-07-25 22:49:00,62.5,56.0,29.63,South,181,2.0,2.0,78,0.00,,,0.01,weatherlink.com 1.10,2013-07-26 05:49:00,
2013-07-25 23:04:00,63.3,54.0,29.63,SE,142,3.0,3.0,72,0.00,,,0.01,weatherlink.com 1.10,2013-07-26 06:04:00,
2013-07-25 23:19:00,63.8,53.0,29.63,SE,135,1.0,2.0,68,0.00,,,0.01,weatherlink.com 1.10,2013-07-26 06:19:00,
2013-07-25 23:34:00,64.2,53.0,29.63,SE,136,2.0,4.0,67,0.00,,,0.01,weatherlink.com 1.10,2013-07-26 06:34:00,
2013-07-25 23:49:00,63.5,54.0,29.62,SSE,158,3.0,6.0,70,0.00,,,0.01,weatherlink.com 1.10,2013-07-26 06:49:00,